Belton, SC

12:34 PM EDT on March 28, 2015 (GMT -0400)
Broadway Lake Area | | Change Station
CLOSE
Current Station
Personal Weather Station
Location: Anderson, SC
Elevation: 784 ft
Nearby Weather Stations
Active Advisory: Freeze Warning Active Notice: Public Information Statement

Elev 784 ft 34.48 °N, 82.60 °W | Updated 9 seconds ago

Clear
Clear
48.2 °F
Feels Like 47 °F
N
4.0
Wind Variable Wind from SSW
Gusts 10.0 mph

Today
High -- | Low -- °F
--% Chance of Precip.
Yesterday
High -- | Low -- °F
Precip. -- in
7:22 AM 7:47 PM
Waxing Gibbous, 63% visible
Pressure 30.10 in
Visibility 10.0 miles
Clouds Clear
Windchill 47 °F
Dew Point 22 °F
Humidity 35%
Rainfall 0.00 in
Snow Depth Not available.
UV 8 out of 12
Pollen 8.90 out of 12
Air Quality Not available.
Flu Activity Not available.
METAR KAND 281556Z AUTO 33007G15KT 10SM CLR 07/M08 A3010 RMK AO2 SLP193 T00721078

More Conditions Fewer Conditions

Pressure 30.10 in
Visibility 10.0 miles
Clouds Clear
Windchill 47 °F
Dew Point 22 °F
Humidity 35%
Rainfall 0.00 in
Snow Depth Not available.
UV 8 out of 12
Pollen 8.90 out of 12
Air Quality Not available.
Flu Activity Not available.
METAR KAND 281556Z AUTO 33007G15KT 10SM CLR 07/M08 A3010 RMK AO2 SLP193 T00721078

More Conditions Fewer Conditions

10-Day Weather Forecast

Almanac

Astronomy

Mar. 28, 2015 Rise Set
Actual Time
Civil Twilight
Nautical Twilight
Astronomical Twilight
Moon
Length of Visible Light
Length of Day
Tomorrow will be .
, % of the Moon is Illuminated

Today's Extremes

State Highs State Lows

Community

WunderPhotos

Upload Photos

1,809,027 photos uploaded!

WunderBlogs® & News

Nearby

Air Quality

  Air Quality AQ Index Pollutant
Not available.

Snow Depth

Station Depth Elevation

Earthquake Activity

City Distance Mag. Time & Date
Minimum magnitude displayed is 2.5.

Coastal Water Temperatures

Place Temperature

Stations

Nearby Weather Stations

Station Location Temp. Windchill Dew Point Humidity Wind Precip. Elev Updated Type
                   
Freeze Warning
Statement as of 11:56 AM EDT on March 28, 2015

... Freeze warning remains in effect from midnight tonight to
11 am EDT Sunday...

* locations... portions of north Georgia... upstate South Carolina
and the North Carolina Piedmont.

* Temperatures... lows in the upper 20s tonight. Highs in the
lower to mid 50s Sunday.

* Impacts... very cold temperatures will kill sensitive
vegetation that has already started to grow this season.

Precautionary/preparedness actions...

A freeze warning means sub-freezing temperatures are imminent or
highly likely. These conditions will kill crops and other
sensitive vegetation.


Wimberley